Time;durP1;ratioP1;P1;durP2;ratioP2;P2;SDS_P1;SDS_P2;PMS_P1;PMS_P2;Temp;Humidity;BMP_temperature;BMP_pressure;BME280_temperature;BME280_humidity;BME280_pressure;Samples;Min_cycle;Max_cycle;Signal;HPM_P1;HPM_P2
2022/12/19 00:00:20;;;;;;;19.37;9.50;;;;;;;2.82;75.30;96564.38;4991636;28;20564;-77
2022/12/19 00:02:45;;;;;;;21.10;10.90;;;;;;;2.79;75.57;96568.97;5001907;28;20411;-77
2022/12/19 00:05:12;;;;;;;19.53;9.73;;;;;;;2.57;75.79;96544.66;5011071;28;20686;-77
2022/12/19 00:07:37;;;;;;;19.77;9.73;;;;;;;2.79;75.81;96568.97;5002750;28;20216;-77
2022/12/19 00:10:03;;;;;;;16.13;9.00;;;;;;;2.39;75.97;96506.28;5002908;28;20181;-77
2022/12/19 00:12:29;;;;;;;20.73;9.00;;;;;;;2.79;76.02;96569.78;5003007;28;20250;-77
2022/12/19 00:14:55;;;;;;;18.97;9.27;;;;;;;2.80;76.36;96575.81;4991162;28;20184;-77
2022/12/19 00:17:20;;;;;;;20.37;11.03;;;;;;;2.70;75.82;96567.91;4994498;28;20428;-77
2022/12/19 00:19:45;;;;;;;20.37;10.33;;;;;;;2.77;76.05;96579.47;4996116;28;20169;-77
2022/12/19 00:22:11;;;;;;;21.02;10.98;;;;;;;2.75;76.56;96584.00;5013791;28;20414;-77
2022/12/19 00:24:36;;;;;;;20.67;10.13;;;;;;;2.77;76.27;96579.47;5014011;28;20725;-77
2022/12/19 00:27:02;;;;;;;18.87;9.33;;;;;;;2.66;76.37;96563.94;5014387;28;20679;-78
2022/12/19 00:29:27;;;;;;;21.13;9.90;;;;;;;2.75;76.17;96577.97;5005771;28;20180;-78
2022/12/19 00:31:52;;;;;;;21.80;10.43;;;;;;;2.75;76.45;96586.59;5013540;28;20603;-77
2022/12/19 00:34:18;;;;;;;22.13;10.10;;;;;;;2.82;76.45;96579.97;5007218;28;20567;-77
2022/12/19 00:36:43;;;;;;;21.17;9.90;;;;;;;2.63;76.45;96554.59;5015193;28;20192;-77
2022/12/19 00:39:10;;;;;;;21.47;11.40;;;;;;;2.80;76.32;96587.06;4995044;28;20447;-78
2022/12/19 00:41:37;;;;;;;20.00;9.40;;;;;;;2.56;76.39;96539.59;4995093;28;20557;-78
2022/12/19 00:44:05;;;;;;;22.33;11.15;;;;;;;2.88;76.34;96586.44;4993329;28;20993;-78
2022/12/19 00:46:32;;;;;;;18.23;8.77;;;;;;;2.81;76.13;96587.88;4994470;28;20173;-78
2022/12/19 00:48:58;;;;;;;18.50;10.23;;;;;;;2.78;76.52;96588.94;4994336;28;20604;-77
2022/12/19 00:51:30;;;;;;;15.70;9.47;;;;;;;2.80;76.58;96588.84;5005401;28;20180;-77
2022/12/19 00:53:57;;;;;;;19.80;10.70;;;;;;;2.82;76.64;96592.16;5007444;28;20203;-78
2022/12/19 00:56:29;;;;;;;21.40;10.33;;;;;;;2.79;76.83;96590.59;5012793;28;20224;-77
2022/12/19 00:58:55;;;;;;;20.17;9.63;;;;;;;2.80;77.04;96587.06;4999829;28;20176;-77
2022/12/19 01:01:24;;;;;;;24.50;10.52;;;;;;;2.73;77.38;96577.25;4992332;28;20428;-77
2022/12/19 01:03:50;;;;;;;19.70;9.63;;;;;;;2.87;76.67;96595.19;4994203;28;20172;-77
2022/12/19 01:06:16;;;;;;;18.13;10.10;;;;;;;2.86;76.85;96599.56;5010091;28;20177;-77
2022/12/19 01:08:42;;;;;;;19.97;10.33;;;;;;;2.88;76.98;96599.44;4998729;28;20212;-78
2022/12/19 01:11:07;;;;;;;20.40;10.37;;;;;;;2.86;77.06;96598.75;4994419;28;20577;-78
2022/12/19 01:13:35;;;;;;;23.27;10.82;;;;;;;2.92;76.91;96600.88;4993562;28;21020;-78
2022/12/19 01:16:09;;;;;;;24.50;10.13;;;;;;;2.93;76.56;96600.78;4994078;28;20287;-78
2022/12/19 01:18:35;;;;;;;19.75;10.52;;;;;;;2.68;76.34;96582.00;5002552;28;20421;-77
2022/12/19 01:21:03;;;;;;;21.55;11.25;;;;;;;2.58;76.61;96582.72;5012729;28;20759;-77
2022/12/19 01:23:28;;;;;;;21.98;11.63;;;;;;;2.57;77.15;96601.84;4997022;28;20404;-77
2022/12/19 01:25:55;;;;;;;19.97;9.03;;;;;;;2.49;78.06;96599.03;5004882;28;20210;-77
2022/12/19 01:28:21;;;;;;;20.75;10.77;;;;;;;2.44;78.42;96605.50;5012497;28;20418;-77
2022/12/19 01:30:46;;;;;;;21.55;11.43;;;;;;;2.27;78.75;96606.78;5011943;28;20411;-78
2022/12/19 01:33:15;;;;;;;19.85;11.02;;;;;;;2.37;78.57;96612.13;5000169;28;20491;-76
2022/12/19 01:35:41;;;;;;;20.53;10.60;;;;;;;2.44;78.30;96605.50;5001644;28;20180;-76
2022/12/19 01:38:12;;;;;;;20.20;9.63;;;;;;;2.42;78.53;96602.22;5001947;28;20177;-78
2022/12/19 01:40:37;;;;;;;19.80;9.20;;;;;;;2.19;78.22;96559.78;5008801;28;20191;-78
2022/12/19 01:43:03;;;;;;;21.47;9.13;;;;;;;2.52;78.52;96595.34;5003485;28;20177;-78
2022/12/19 01:45:34;;;;;;;19.73;9.80;;;;;;;2.52;78.34;96601.38;5006932;28;20168;-77
2022/12/19 01:48:12;;;;;;;21.80;9.40;;;;;;;2.53;78.10;96603.03;5013056;28;20180;-76
2022/12/19 01:50:48;;;;;;;22.60;10.13;;;;;;;2.55;78.08;96602.91;5004695;28;20267;-76
2022/12/19 01:53:14;;;;;;;20.40;9.47;;;;;;;2.51;78.21;96597.09;5010920;28;20625;-76
2022/12/19 01:55:42;;;;;;;20.77;9.27;;;;;;;2.54;78.02;96599.47;4993311;28;20185;-77
2022/12/19 01:58:09;;;;;;;22.85;10.90;;;;;;;2.45;77.67;96568.16;4993004;28;20819;-77
2022/12/19 02:00:35;;;;;;;18.00;9.17;;;;;;;2.52;77.33;96585.78;4997647;28;20179;-77
2022/12/19 02:03:17;;;;;;;21.70;9.47;;;;;;;2.46;77.88;96577.63;5013059;28;20180;-79
2022/12/19 02:05:44;;;;;;;22.13;11.88;;;;;;;2.51;78.34;96591.91;5010852;28;20411;-78
2022/12/19 02:08:09;;;;;;;20.33;9.50;;;;;;;2.30;78.07;96567.59;4996467;28;20376;-76
2022/12/19 02:10:35;;;;;;;23.67;10.60;;;;;;;2.43;77.79;96577.84;4993224;28;20864;-77
2022/12/19 02:13:01;;;;;;;18.80;9.80;;;;;;;2.55;77.68;96593.34;4993171;28;20271;-77
2022/12/19 02:15:29;;;;;;;23.00;10.43;;;;;;;2.55;77.59;96592.50;4992777;28;20415;-76
2022/12/19 02:18:16;;;;;;;21.92;10.77;;;;;;;2.45;77.62;96587.19;4992165;28;20982;-77
2022/12/19 02:21:11;;;;;;;17.50;9.07;;;;;;;2.39;78.21;96592.88;5012085;28;20793;-77
2022/12/19 02:23:55;;;;;;;21.03;11.10;;;;;;;2.40;78.64;96584.13;5009349;28;20422;-77
2022/12/19 02:26:41;;;;;;;21.15;11.30;;;;;;;2.32;78.57;96601.25;5007455;28;20426;-76
2022/12/19 02:29:07;;;;;;;23.33;12.40;;;;;;;2.34;78.50;96601.94;4983676;28;20746;-75
2022/12/19 02:31:40;;;;;;;22.60;11.47;;;;;;;2.38;78.38;96605.97;4993089;28;20184;-78
2022/12/19 02:34:12;;;;;;;28.60;15.55;;;;;;;2.41;78.09;96611.78;4991189;28;20467;-77
2022/12/19 02:36:50;;;;;;;35.30;19.03;;;;;;;2.33;78.42;96613.31;4990655;28;20435;-77
2022/12/19 02:40:08;;;;;;;23.33;13.67;;;;;;;2.48;78.31;96607.75;5005677;28;20411;-76
2022/12/19 02:42:43;;;;;;;21.67;10.40;;;;;;;2.45;77.54;96604.56;4995403;28;20184;-77
2022/12/19 02:45:12;;;;;;;21.97;11.10;;;;;;;2.17;77.83;96569.47;4993823;28;20502;-76
2022/12/19 02:47:40;;;;;;;20.42;10.93;;;;;;;2.19;77.71;96570.16;5004816;28;20928;-76
2022/12/19 02:50:07;;;;;;;23.67;11.73;;;;;;;2.29;77.66;96604.91;5011301;28;20510;-76
2022/12/19 02:52:32;;;;;;;26.03;10.60;;;;;;;2.25;78.08;96598.28;4995226;28;20181;-77
2022/12/19 02:55:10;;;;;;;20.77;10.60;;;;;;;2.18;78.80;96587.53;4991737;28;20423;-77
2022/12/19 02:57:56;;;;;;;18.27;9.67;;;;;;;2.21;78.27;96591.66;4992229;28;20200;-77
2022/12/19 03:00:25;;;;;;;20.77;10.23;;;;;;;2.23;78.73;96595.00;4997417;28;20234;-77
2022/12/19 03:03:12;;;;;;;19.63;9.80;;;;;;;2.32;78.40;96583.91;5007747;28;20173;-77
2022/12/19 03:05:52;;;;;;;20.70;9.37;;;;;;;2.27;78.61;96570.41;5001428;28;20172;-77
2022/12/19 03:08:27;;;;;;;22.05;11.15;;;;;;;2.20;78.31;96585.66;5010435;28;20447;-77
2022/12/19 03:10:59;;;;;;;19.37;8.80;;;;;;;2.18;78.55;96581.50;5010511;28;20203;-77
2022/12/19 03:13:35;;;;;;;21.75;11.85;;;;;;;2.22;78.43;96582.94;4994929;28;20440;-78
2022/12/19 03:16:02;;;;;;;19.20;10.43;;;;;;;2.25;78.48;96588.72;5009787;28;20184;-78
2022/12/19 03:18:30;;;;;;;21.23;10.13;;;;;;;2.34;78.30;96589.78;5006187;28;20656;-79
2022/12/19 03:21:11;;;;;;;22.33;9.77;;;;;;;2.35;77.30;96581.03;4993449;28;20173;-78
2022/12/19 03:23:37;;;;;;;21.80;10.40;;;;;;;2.33;77.12;96597.72;5000155;28;20181;-77
2022/12/19 03:26:08;;;;;;;21.27;10.53;;;;;;;2.21;78.23;96568.28;4994582;28;20219;-77
2022/12/19 03:28:41;;;;;;;23.75;11.82;;;;;;;2.08;78.44;96564.97;5000664;28;20920;-78
2022/12/19 03:31:08;;;;;;;21.93;10.37;;;;;;;2.24;78.12;96587.09;5011459;28;20680;-77
2022/12/19 03:33:36;;;;;;;22.63;11.95;;;;;;;2.18;77.98;96581.50;5010090;28;20470;-77
2022/12/19 03:36:06;;;;;;;20.37;10.70;;;;;;;2.26;78.16;96607.72;5004342;28;20699;-77
2022/12/19 03:38:33;;;;;;;21.35;10.98;;;;;;;2.21;78.23;96602.91;4999335;28;20416;-77
2022/12/19 03:41:01;;;;;;;21.35;11.57;;;;;;;2.19;78.62;96609.97;4989817;28;20439;-77
2022/12/19 03:43:28;;;;;;;19.90;11.13;;;;;;;2.13;78.37;96607.00;4993398;28;20184;-79
2022/12/19 03:46:03;;;;;;;21.10;9.73;;;;;;;2.09;78.28;96605.56;4997580;28;20205;-78
2022/12/19 03:48:44;;;;;;;21.47;9.30;;;;;;;2.14;78.19;96612.09;4993466;28;20187;-78
2022/12/19 03:51:30;;;;;;;19.47;8.97;;;;;;;2.15;78.04;96613.75;4993675;28;20662;-78
2022/12/19 03:54:26;;;;;;;21.95;11.23;;;;;;;1.85;78.33;96590.06;5006493;28;20425;-78
2022/12/19 03:56:55;;;;;;;24.13;12.85;;;;;;;1.96;78.52;96607.44;5003886;28;20907;-78
2022/12/19 03:59:25;;;;;;;33.43;13.83;;;;;;;1.99;78.71;96621.00;5008464;28;20184;-78
2022/12/19 04:01:52;;;;;;;38.80;15.27;;;;;;;2.00;79.05;96629.63;4999412;28;20651;-78
2022/12/19 04:04:20;;;;;;;38.30;14.77;;;;;;;1.97;78.52;96627.28;5004397;28;20667;-78
2022/12/19 04:06:47;;;;;;;36.63;15.73;;;;;;;1.98;78.93;96628.94;5002195;28;20247;-78
2022/12/19 04:09:14;;;;;;;28.90;13.40;;;;;;;1.96;78.41;96636.84;5000065;28;20510;-78
2022/12/19 04:11:48;;;;;;;28.25;14.02;;;;;;;1.48;78.45;96555.63;4997773;28;20961;-78
2022/12/19 04:14:19;;;;;;;24.77;12.60;;;;;;;2.01;78.41;96644.28;5014035;28;20184;-78
2022/12/19 04:17:27;;;;;;;24.60;10.80;;;;;;;2.05;78.40;96640.53;5015471;28;20204;-78
2022/12/19 04:20:00;;;;;;;25.60;10.87;;;;;;;1.98;78.37;96644.53;5018536;28;20195;-79
2022/12/19 04:22:34;;;;;;;20.87;9.63;;;;;;;1.99;77.89;96644.38;4995877;28;20192;-79
2022/12/19 04:25:01;;;;;;;25.08;13.02;;;;;;;2.01;78.23;96649.47;5002243;28;20495;-77
2022/12/19 04:27:29;;;;;;;28.23;11.93;;;;;;;2.01;78.38;96646.88;5002135;28;20173;-77
2022/12/19 04:29:58;;;;;;;21.27;10.00;;;;;;;2.07;77.80;96643.84;5004662;28;20189;-78
2022/12/19 04:32:24;;;;;;;26.20;11.70;;;;;;;2.06;78.06;96637.00;4997243;28;20180;-77
2022/12/19 04:34:50;;;;;;;20.73;11.03;;;;;;;2.02;77.73;96627.75;5000182;28;20177;-77
2022/12/19 04:37:15;;;;;;;22.93;12.20;;;;;;;2.03;77.85;96645.81;4985398;28;20220;-77
2022/12/19 04:39:41;;;;;;;24.53;10.53;;;;;;;1.88;78.30;96629.63;4987054;28;20212;-77
2022/12/19 04:42:06;;;;;;;21.53;10.10;;;;;;;1.82;77.96;96621.44;4984051;28;20549;-77
2022/12/19 04:44:32;;;;;;;22.93;10.83;;;;;;;1.98;78.09;96654.91;4988470;28;20177;-77
2022/12/19 04:46:57;;;;;;;21.63;10.93;;;;;;;1.77;78.34;96631.34;4993373;28;20185;-77
2022/12/19 04:49:22;;;;;;;22.23;11.10;;;;;;;1.91;79.21;96649.31;4994497;28;20169;-77
2022/12/19 04:51:48;;;;;;;25.63;11.23;;;;;;;2.00;78.30;96655.59;5004489;28;20610;-77
2022/12/19 04:54:13;;;;;;;22.47;9.97;;;;;;;2.00;78.52;96653.84;5014457;28;20188;-77
2022/12/19 04:56:39;;;;;;;25.20;10.70;;;;;;;2.02;78.75;96651.97;5004978;28;20193;-77
2022/12/19 04:59:04;;;;;;;21.80;10.10;;;;;;;1.86;77.93;96626.31;5006763;28;20186;-77
2022/12/19 05:01:30;;;;;;;25.10;11.13;;;;;;;1.99;77.75;96641.78;4999059;28;20206;-76
2022/12/19 05:03:55;;;;;;;20.30;10.17;;;;;;;2.02;77.50;96651.13;4994682;28;20200;-76
2022/12/19 05:06:21;;;;;;;25.47;11.80;;;;;;;2.03;77.88;96658.81;4993062;28;20203;-77
2022/12/19 05:08:47;;;;;;;20.77;10.30;;;;;;;2.00;78.18;96659.03;4992532;28;20617;-77
2022/12/19 05:11:14;;;;;;;22.43;10.27;;;;;;;1.80;77.87;96631.97;5017088;28;20207;-77
2022/12/19 05:13:39;;;;;;;25.80;12.73;;;;;;;1.66;78.33;96639.91;5013525;28;20417;-77
2022/12/19 05:16:08;;;;;;;25.83;11.53;;;;;;;1.87;77.87;96661.72;5013556;28;20177;-77
2022/12/19 05:18:35;;;;;;;22.65;12.00;;;;;;;1.93;77.51;96657.00;5012064;28;20418;-76
2022/12/19 05:21:01;;;;;;;24.97;10.87;;;;;;;1.90;77.56;96664.06;5013457;28;20172;-77
2022/12/19 05:23:26;;;;;;;20.67;10.20;;;;;;;1.90;77.64;96656.28;5011682;28;20679;-76
2022/12/19 05:25:52;;;;;;;24.47;11.57;;;;;;;1.85;77.49;96629.84;4989244;28;20262;-78
2022/12/19 05:28:18;;;;;;;27.93;11.97;;;;;;;1.99;77.51;96665.16;4995470;28;20188;-77
2022/12/19 05:30:44;;;;;;;27.67;13.20;;;;;;;1.96;78.24;96664.56;5003772;28;20183;-77
2022/12/19 05:33:10;;;;;;;23.23;10.97;;;;;;;1.98;77.70;96665.31;5013070;28;20647;-76
2022/12/19 05:35:36;;;;;;;29.47;12.03;;;;;;;2.03;78.30;96670.97;5013359;28;20181;-76
2022/12/19 05:38:01;;;;;;;25.23;10.30;;;;;;;2.08;77.57;96676.63;5012850;28;20196;-76
2022/12/19 05:40:27;;;;;;;23.67;11.13;;;;;;;2.08;77.75;96671.44;4994462;28;20185;-75
2022/12/19 05:42:53;;;;;;;27.02;12.38;;;;;;;2.09;78.03;96673.09;4992924;28;20422;-77
2022/12/19 05:45:18;;;;;;;21.03;10.03;;;;;;;1.85;77.83;96645.41;4993727;28;20184;-77
2022/12/19 05:47:45;;;;;;;22.80;11.20;;;;;;;1.98;77.70;96662.69;5001006;28;20174;-76
2022/12/19 05:50:12;;;;;;;26.30;12.40;;;;;;;1.82;78.32;96642.22;4996596;28;20211;-76
2022/12/19 05:52:37;;;;;;;22.03;11.30;;;;;;;1.99;77.93;96672.16;5012016;28;20179;-78
2022/12/19 05:55:04;;;;;;;20.67;9.87;;;;;;;1.83;78.08;96649.06;5012023;28;20169;-75
2022/12/19 05:57:29;;;;;;;22.25;11.63;;;;;;;1.91;77.29;96675.28;5012050;28;20814;-75
2022/12/19 05:59:55;;;;;;;28.08;13.13;;;;;;;1.87;77.49;96674.69;5010557;28;20422;-76
2022/12/19 06:02:20;;;;;;;25.83;11.70;;;;;;;1.82;77.64;96676.78;5011388;28;20168;-75
2022/12/19 06:04:45;;;;;;;24.92;12.43;;;;;;;1.82;78.06;96675.97;5011504;28;20910;-76
2022/12/19 06:07:11;;;;;;;19.60;10.57;;;;;;;1.77;78.20;96681.50;5012110;28;20227;-76
2022/12/19 06:09:36;;;;;;;24.70;11.37;;;;;;;1.87;77.69;96682.50;5012029;28;20663;-76
2022/12/19 06:12:02;;;;;;;23.40;11.07;;;;;;;1.75;77.46;96659.19;5011509;28;20172;-76
2022/12/19 06:14:27;;;;;;;28.80;14.07;;;;;;;1.77;77.93;96676.31;5010702;28;20551;-76
2022/12/19 06:16:52;;;;;;;27.20;13.50;;;;;;;1.76;78.03;96679.00;5012258;28;20193;-76
2022/12/19 06:19:18;;;;;;;28.90;14.45;;;;;;;1.77;78.25;96685.88;5011110;28;20925;-76
2022/12/19 06:21:43;;;;;;;32.70;16.53;;;;;;;1.84;77.97;96685.31;5011637;28;20403;-77
2022/12/19 06:24:09;;;;;;;30.13;16.47;;;;;;;1.95;77.85;96692.31;5011163;28;20417;-76
2022/12/19 06:26:35;;;;;;;25.00;12.93;;;;;;;1.93;78.43;96672.59;5012502;28;20655;-76
2022/12/19 06:29:00;;;;;;;28.70;13.30;;;;;;;2.13;77.40;96695.31;5012238;28;20188;-76
2022/12/19 06:31:26;;;;;;;36.80;13.83;;;;;;;2.21;77.20;96693.81;5007118;28;20198;-76
2022/12/19 06:33:53;;;;;;;32.47;13.33;;;;;;;2.20;77.44;96683.53;4992509;28;20656;-75
2022/12/19 06:36:27;;;;;;;27.03;12.53;;;;;;;2.31;77.24;96696.56;4992244;28;20201;-76
2022/12/19 06:38:54;;;;;;;29.93;12.40;;;;;;;2.36;77.00;96698.81;4991308;28;20952;-76
2022/12/19 06:44:09;;;;;;;28.77;12.80;;;;;;;2.40;76.64;96698.47;5011917;28;20182;-76
2022/12/19 06:46:35;;;;;;;38.20;15.73;;;;;;;2.47;76.42;96698.84;5009832;28;20424;-76
2022/12/19 06:49:01;;;;;;;37.93;16.20;;;;;;;2.34;75.78;96669.50;5005231;28;20185;-76
2022/12/19 06:51:26;;;;;;;29.53;13.50;;;;;;;2.63;75.64;96707.97;4991967;28;20232;-76
2022/12/19 06:53:52;;;;;;;24.97;12.80;;;;;;;2.57;75.65;96702.41;5004878;28;20234;-76
2022/12/19 06:56:19;;;;;;;26.93;12.93;;;;;;;2.74;75.71;96721.91;4995331;28;20734;-76
2022/12/19 06:58:44;;;;;;;26.10;12.90;;;;;;;2.76;74.99;96720.03;4991718;28;20173;-76
2022/12/19 07:01:24;;;;;;;23.77;11.13;;;;;;;2.81;74.71;96728.31;4991935;28;20617;-76
2022/12/19 07:03:49;;;;;;;23.33;11.37;;;;;;;2.79;74.33;96730.19;4992033;28;20252;-76
2022/12/19 07:06:15;;;;;;;23.67;10.53;;;;;;;2.77;74.55;96724.28;4995581;28;20255;-75
2022/12/19 07:08:41;;;;;;;25.50;12.07;;;;;;;2.68;75.08;96707.63;5009749;28;20430;-76
2022/12/19 07:11:06;;;;;;;28.50;11.53;;;;;;;2.82;74.84;96737.75;5011328;28;20307;-76
2022/12/19 07:13:32;;;;;;;22.50;10.80;;;;;;;2.87;75.21;96735.63;5011400;28;20260;-76
2022/12/19 07:16:00;;;;;;;23.23;11.03;;;;;;;2.84;74.69;96730.69;4993575;28;20188;-76
2022/12/19 07:18:25;;;;;;;26.48;11.70;;;;;;;2.91;74.61;96743.09;4994684;28;21194;-76
2022/12/19 07:20:51;;;;;;;23.93;10.20;;;;;;;2.90;74.25;96736.25;5011414;28;20287;-76
2022/12/19 07:23:20;;;;;;;20.13;10.10;;;;;;;2.90;74.45;96745.81;5011574;28;20181;-75
2022/12/19 07:25:45;;;;;;;23.70;10.67;;;;;;;2.97;74.69;96736.59;4997504;28;20927;-75
2022/12/19 07:28:11;;;;;;;19.93;10.43;;;;;;;2.91;73.45;96740.50;4991337;28;20215;-75
2022/12/19 07:30:37;;;;;;;23.20;11.53;;;;;;;2.82;73.39;96741.19;4991486;28;20659;-75
2022/12/19 07:33:02;;;;;;;21.30;10.10;;;;;;;2.86;74.49;96739.16;4991556;28;20212;-75
2022/12/19 07:35:28;;;;;;;31.37;12.17;;;;;;;2.93;74.24;96750.78;5009928;28;20184;-75
2022/12/19 07:37:53;;;;;;;22.87;10.83;;;;;;;2.98;74.11;96753.84;5010969;28;20200;-75
2022/12/19 07:40:19;;;;;;;21.43;10.27;;;;;;;2.98;74.52;96753.84;5011339;28;20677;-75
2022/12/19 07:42:44;;;;;;;22.53;10.73;;;;;;;2.99;74.25;96753.75;4999480;28;20193;-76
2022/12/19 07:45:11;;;;;;;21.30;10.17;;;;;;;3.09;73.68;96764.28;4991282;28;20177;-76
2022/12/19 07:47:38;;;;;;;24.17;10.97;;;;;;;3.13;73.18;96768.28;4991299;28;20192;-76
2022/12/19 07:50:04;;;;;;;23.57;10.67;;;;;;;3.11;73.49;96771.97;4991242;28;20644;-76
2022/12/19 07:52:29;;;;;;;30.70;10.93;;;;;;;3.10;73.58;96781.53;4991381;28;20176;-76
2022/12/19 07:54:55;;;;;;;24.20;10.70;;;;;;;3.12;74.41;96765.78;4991188;28;20177;-75
2022/12/19 07:57:20;;;;;;;22.83;10.03;;;;;;;3.27;73.61;96788.06;4989796;28;20271;-75
2022/12/19 07:59:46;;;;;;;20.83;10.87;;;;;;;3.31;72.37;96784.25;4990900;28;20187;-74
2022/12/19 08:02:12;;;;;;;19.70;9.60;;;;;;;3.30;72.36;96793.84;4991284;28;20201;-75
2022/12/19 08:04:37;;;;;;;16.93;8.80;;;;;;;3.35;72.91;96794.31;4991355;28;20180;-75
2022/12/19 08:07:03;;;;;;;20.60;9.03;;;;;;;3.34;72.64;96792.66;5002288;28;20220;-75
2022/12/19 08:09:29;;;;;;;27.07;10.63;;;;;;;3.33;71.72;96792.78;5002176;28;20181;-75
2022/12/19 08:11:55;;;;;;;18.70;9.77;;;;;;;3.27;71.83;96791.50;4985129;28;20181;-75
2022/12/19 08:14:20;;;;;;;21.53;11.40;;;;;;;3.16;71.94;96786.28;4987726;28;20234;-76
2022/12/19 08:16:46;;;;;;;24.97;11.57;;;;;;;3.02;72.33;96789.09;4991009;28;20711;-78
2022/12/19 08:19:11;;;;;;;27.53;11.77;;;;;;;3.01;72.97;96803.88;4999355;28;20703;-76
2022/12/19 08:21:37;;;;;;;28.20;12.37;;;;;;;3.03;73.48;96801.97;4991107;28;20181;-74
2022/12/19 08:24:02;;;;;;;21.40;10.43;;;;;;;3.07;74.60;96786.13;4990766;28;20231;-75
2022/12/19 08:26:28;;;;;;;25.87;12.00;;;;;;;3.09;73.26;96805.06;4995126;28;20176;-76
2022/12/19 08:28:56;;;;;;;23.30;10.33;;;;;;;3.08;73.18;96799.03;5010438;28;20185;-76
2022/12/19 08:31:23;;;;;;;25.03;11.57;;;;;;;3.14;73.32;96800.34;4999409;28;20632;-75
2022/12/19 08:33:50;;;;;;;25.70;11.23;;;;;;;3.16;73.39;96795.84;4990946;28;20260;-76
2022/12/19 08:36:17;;;;;;;26.13;11.40;;;;;;;3.06;73.33;96794.88;4991826;28;20317;-76
2022/12/19 08:38:44;;;;;;;27.60;12.47;;;;;;;3.15;73.31;96802.81;4999181;28;20161;-75
2022/12/19 08:41:10;;;;;;;22.73;10.97;;;;;;;3.17;73.66;96800.94;5013799;28;20188;-76
2022/12/19 08:43:35;;;;;;;28.27;11.87;;;;;;;3.05;73.55;96794.06;5013974;28;20243;-76
2022/12/19 08:46:01;;;;;;;29.30;13.20;;;;;;;3.08;74.65;96798.22;5013689;28;20680;-76
2022/12/19 08:48:26;;;;;;;32.07;13.37;;;;;;;3.08;73.89;96790.41;5003258;28;20243;-76
2022/12/19 08:50:56;;;;;;;25.60;12.47;;;;;;;3.15;74.38;96784.63;4992903;28;20664;-76
2022/12/19 08:53:22;;;;;;;26.50;13.97;;;;;;;3.14;74.67;96788.16;4989383;28;20395;-76
2022/12/19 08:55:57;;;;;;;35.10;14.33;;;;;;;3.14;74.14;96782.94;4991217;28;20184;-76
2022/12/19 08:58:27;;;;;;;29.40;12.70;;;;;;;3.14;74.05;96775.16;4991993;28;20172;-75
2022/12/19 09:00:53;;;;;;;33.80;14.20;;;;;;;3.00;73.79;96762.38;4992494;28;20173;-75
2022/12/19 09:03:19;;;;;;;32.77;13.77;;;;;;;3.03;74.36;96773.34;4993208;28;20180;-76
2022/12/19 09:05:45;;;;;;;26.07;13.13;;;;;;;3.02;74.98;96768.28;4992157;28;20250;-74
2022/12/19 09:08:11;;;;;;;34.80;14.23;;;;;;;3.11;75.01;96770.19;4992716;28;20299;-74
2022/12/19 09:10:37;;;;;;;31.17;13.90;;;;;;;3.23;74.67;96768.41;4993599;28;20220;-74
2022/12/19 09:13:04;;;;;;;32.87;14.40;;;;;;;3.28;74.85;96754.13;4990115;28;20188;-76
2022/12/19 09:15:30;;;;;;;30.47;14.63;;;;;;;3.34;74.91;96758.84;4993809;28;20181;-76
2022/12/19 09:17:55;;;;;;;39.37;16.23;;;;;;;3.37;74.78;96742.16;4993655;28;20266;-76
2022/12/19 09:20:21;;;;;;;33.37;15.43;;;;;;;3.50;73.77;96747.22;4993654;28;20184;-76
2022/12/19 09:22:46;;;;;;;38.47;16.03;;;;;;;3.40;73.72;96745.34;4993498;28;20184;-76
2022/12/19 09:25:12;;;;;;;34.77;14.27;;;;;;;3.22;74.08;96744.16;4994072;28;20173;-77
2022/12/19 09:27:37;;;;;;;32.73;15.20;;;;;;;3.13;75.00;96736.22;4993812;28;20180;-76
2022/12/19 09:30:03;;;;;;;29.80;13.97;;;;;;;3.07;75.71;96729.75;4993604;28;20530;-76
2022/12/19 09:32:29;;;;;;;31.20;15.03;;;;;;;2.86;76.59;96723.56;4997337;28;20195;-74
2022/12/19 09:34:54;;;;;;;33.67;14.60;;;;;;;2.83;77.07;96716.84;4993281;28;20288;-74
2022/12/19 09:37:20;;;;;;;27.60;13.10;;;;;;;3.03;76.85;96716.13;4987890;28;20187;-74
2022/12/19 09:39:46;;;;;;;31.27;14.43;;;;;;;3.15;75.65;96716.97;4988301;28;20264;-74
2022/12/19 09:42:12;;;;;;;29.20;13.53;;;;;;;3.10;76.40;96713.06;4987200;28;20228;-74
2022/12/19 09:44:52;;;;;;;32.37;14.53;;;;;;;2.89;77.73;96713.78;4974004;28;20775;-74
2022/12/19 09:47:30;;;;;;;28.77;11.47;;;;;;;3.11;77.91;96712.97;4993624;28;20154;-75
2022/12/19 09:49:56;;;;;;;26.47;11.57;;;;;;;3.28;77.00;96715.06;5001378;28;20239;-75
2022/12/19 09:52:40;;;;;;;21.60;11.70;;;;;;;3.35;77.02;96705.00;4994137;28;20184;-75
2022/12/19 09:55:40;;;;;;;26.03;11.60;;;;;;;3.16;78.69;96708.22;4994763;28;20173;-75
2022/12/19 09:58:22;;;;;;;27.50;12.17;;;;;;;3.07;79.21;96708.09;4978663;28;20217;-76
2022/12/19 10:00:53;;;;;;;28.67;11.33;;;;;;;3.15;79.73;96697.91;4992852;28;20239;-75
2022/12/19 10:03:28;;;;;;;31.30;13.17;;;;;;;3.40;79.05;96690.66;4991610;28;20618;-75
2022/12/19 10:05:59;;;;;;;24.57;11.20;;;;;;;3.54;78.65;96692.19;5000992;28;20536;-76
2022/12/19 10:08:32;;;;;;;25.67;12.03;;;;;;;3.56;78.49;96694.66;4992511;28;20245;-75
2022/12/19 10:11:09;;;;;;;31.10;11.83;;;;;;;3.58;78.63;96692.75;4987126;28;20248;-78
2022/12/19 10:14:10;;;;;;;32.13;12.00;;;;;;;3.69;78.50;96680.56;4985329;28;20166;-78
2022/12/19 10:16:50;;;;;;;27.53;12.23;;;;;;;3.56;79.03;96694.66;4983770;28;20672;-78
2022/12/19 10:19:18;;;;;;;23.80;11.33;;;;;;;3.59;78.63;96673.59;4983920;28;20173;-76
2022/12/19 10:22:24;;;;;;;23.80;11.10;;;;;;;3.42;78.83;96644.53;4987008;28;20176;-76
2022/12/19 10:25:17;;;;;;;29.50;12.60;;;;;;;3.69;79.52;96653.69;4992585;28;20188;-77
2022/12/19 10:27:51;;;;;;;23.60;12.20;;;;;;;3.76;79.68;96649.63;4992249;28;20301;-77
2022/12/19 10:30:20;;;;;;;23.60;10.77;;;;;;;3.79;79.01;96657.19;4992403;28;20184;-77
2022/12/19 10:32:49;;;;;;;23.37;10.80;;;;;;;3.83;78.71;96648.16;4992317;28;20212;-77
2022/12/19 10:35:18;;;;;;;28.43;11.50;;;;;;;3.73;78.83;96653.28;4996501;28;20713;-78
2022/12/19 10:38:01;;;;;;;27.90;11.23;;;;;;;3.71;79.24;96649.19;4996144;28;20201;-78
2022/12/19 10:40:30;;;;;;;25.83;12.50;;;;;;;3.80;79.37;96640.63;4986100;28;20592;-77
2022/12/19 10:42:58;;;;;;;25.87;12.50;;;;;;;3.88;79.37;96640.00;4992403;28;20181;-77
2022/12/19 10:45:32;;;;;;;25.60;10.90;;;;;;;4.03;78.39;96639.56;4991981;28;20263;-77
2022/12/19 10:47:57;;;;;;;25.73;11.70;;;;;;;4.00;78.24;96631.97;4991735;28;20181;-77
2022/12/19 10:50:28;;;;;;;26.90;11.80;;;;;;;4.08;78.02;96642.59;4991998;28;20595;-78
2022/12/19 10:52:55;;;;;;;26.10;12.17;;;;;;;4.12;77.69;96637.97;4999511;28;20188;-77
2022/12/19 10:55:44;;;;;;;24.63;12.23;;;;;;;4.15;78.07;96646.34;5011545;28;20181;-77
2022/12/19 10:58:20;;;;;;;25.77;11.97;;;;;;;4.14;77.21;96634.28;5011103;28;20636;-77
2022/12/19 11:01:00;;;;;;;21.37;11.23;;;;;;;4.08;77.72;96636.56;5011617;28;20576;-76
2022/12/19 11:03:26;;;;;;;26.23;12.27;;;;;;;4.10;78.06;96632.06;5011802;28;20180;-77
2022/12/19 11:05:56;;;;;;;29.80;12.80;;;;;;;4.18;77.60;96630.47;5011584;28;20234;-77
2022/12/19 11:08:30;;;;;;;21.13;12.20;;;;;;;4.06;78.04;96615.03;5011566;28;20267;-74
2022/12/19 11:11:09;;;;;;;27.63;12.30;;;;;;;4.25;77.98;96635.16;5011236;28;20179;-74
2022/12/19 11:13:42;;;;;;;27.70;11.03;;;;;;;4.30;77.73;96630.41;5008875;28;20667;-74
2022/12/19 11:16:09;;;;;;;23.20;10.63;;;;;;;4.07;77.78;96606.25;4991317;28;20176;-75
2022/12/19 11:18:40;;;;;;;26.30;12.10;;;;;;;4.06;78.22;96626.28;4991306;28;20255;-76
2022/12/19 11:21:28;;;;;;;19.70;9.13;;;;;;;3.94;78.82;96626.47;4990225;28;20180;-75
2022/12/19 11:24:02;;;;;;;26.20;11.80;;;;;;;3.88;79.37;96632.19;4991332;28;20173;-75
2022/12/19 11:26:43;;;;;;;32.23;12.17;;;;;;;3.82;79.68;96633.50;4986919;28;20177;-75
2022/12/19 11:29:22;;;;;;;21.93;11.37;;;;;;;3.74;79.41;96594.22;4991353;28;20270;-75
2022/12/19 11:31:55;;;;;;;23.33;11.00;;;;;;;3.78;79.57;96596.47;4991806;28;20180;-76
2022/12/19 11:34:23;;;;;;;23.73;11.27;;;;;;;4.01;79.95;96618.00;4991257;28;20185;-75
2022/12/19 11:36:54;;;;;;;23.83;11.40;;;;;;;4.02;79.88;96621.44;4991105;28;20292;-76
2022/12/19 11:39:32;;;;;;;26.70;12.00;;;;;;;4.01;79.98;96618.00;4991051;28;20256;-76